Historique des mesures à Cassis (13260), France
Quotidien Résumé Janvier 26, 2018 Unités:  Métrique/US    US   Métrique
« Précédent (Jour)
Suivant (Jour) »
Quotidien Hebdomadaire Mensuel Annuel Période au choix
  Maximum: Minimum: Moyenne:
Température: 32 °F /  TemperatureC °C 52.3 °F /  11.3 °C 53.2 °F /  11.8 °C
Point de rosée: 32 °F /  DewpointC °C 46.8 °F /  8.2 °C 47.7 °F /  8.7 °C
Humidité: Humidity % 71 % 77 %
Vitesse du vent: WindSpeedKMH mph /  0 km/h - 6.9 mph /  11.1 km/h
Rafales: WindSpeedGustKMH mph /  0 km/h - -
Vent:- - ESE
Pression: 0 in /  PressurehPa hPa 29.8 in /  1010.4 hPa -
Précipitations: 302.26 in /  11.9 mm    
Historical Graphs
 
 
Mesures pour : Janvier 26, 2018
Heure Temperature Point de rosée Pression Vent Vitesse du vent Rafales Humidité Pluie (par heure) Conditions
32 °F /  TemperatureC °C 32 °F /  DewpointC °C 0 in /  PressurehPa hPa Calm     Humidity % 0 in /  HourlyPrecipMM mm SoftwareType W/m2
00:12 55.9 °F /  13.3 °C 49.1 °F /  9.5 °C 30 in /  1014.8 hPa Calm   8.7 mph /  14 km/h 78 % 0 in /  0.0 mm open2300-1.11 W/m2
01:12 56.1 °F /  13.4 °C 49.3 °F /  9.6 °C 29.9 in /  1014.1 hPa Calm   10.1 mph /  16.3 km/h 78 % 0 in /  0.0 mm open2300-1.11 W/m2
02:12 55.9 °F /  13.3 °C 48 °F /  8.9 °C 29.9 in /  1013.4 hPa SE 9.0 mph /  14.5 km/h 13.0 mph /  20.9 km/h 75 % 0 in /  0.0 mm open2300-1.11 W/m2
03:12 56.1 °F /  13.4 °C 46.8 °F /  8.2 °C 29.9 in /  1012.8 hPa SE 12.2 mph /  19.6 km/h 12.2 mph /  19.6 km/h 71 % 0 in /  0.0 mm open2300-1.11 W/m2
04:12 56.1 °F /  13.4 °C 47.1 °F /  8.4 °C 29.9 in /  1011.7 hPa ESE 4.3 mph /  6.9 km/h 5.0 mph /  8 km/h 72 % 0 in /  0.0 mm open2300-1.11 W/m2
05:12 55.9 °F /  13.3 °C 46.9 °F /  8.3 °C 29.9 in /  1011.7 hPa ESE 20.9 mph /  33.6 km/h 20.9 mph /  33.6 km/h 72 % 0 in /  0.0 mm open2300-1.11 W/m2
06:12 55 °F /  12.8 °C 47.1 °F /  8.4 °C 29.9 in /  1011.1 hPa ENE 11.1 mph /  17.9 km/h 12.2 mph /  19.6 km/h 75 % 0 in /  0.0 mm open2300-1.11 W/m2
07:12 55.2 °F /  12.9 °C 47.5 °F /  8.6 °C 29.8 in /  1010.7 hPa SE 9.3 mph /  15 km/h 9.3 mph /  15 km/h 75 % 0 in /  0.0 mm open2300-1.11 W/m2
08:12 54 °F /  12.2 °C 48 °F /  8.9 °C 29.8 in /  1010.7 hPa ESE 5.5 mph /  8.9 km/h 5.5 mph /  8.9 km/h 80 % 12.7 in /  0.5 mm open2300-1.11 W/m2
09:12 53.8 °F /  12.1 °C 47.8 °F /  8.8 °C 29.8 in /  1010.7 hPa ESE 5.8 mph /  9.3 km/h 9.0 mph /  14.5 km/h 80 % 12.7 in /  0.5 mm open2300-1.11 W/m2
10:12 53.8 °F /  12.1 °C 48.7 °F /  9.3 °C 29.9 in /  1011.1 hPa SE 5.8 mph /  9.3 km/h 5.8 mph /  9.3 km/h 83 % 0 in /  0.0 mm open2300-1.11 W/m2
11:12 53.4 °F /  11.9 °C 48.7 °F /  9.3 °C 29.9 in /  1011.7 hPa ESE 7.9 mph /  12.7 km/h 7.9 mph /  12.7 km/h 84 % 12.7 in /  0.5 mm open2300-1.11 W/m2
12:12 53.2 °F /  11.8 °C 48.2 °F /  9.0 °C 29.9 in /  1011.4 hPa ESE 8.7 mph /  14 km/h 9.3 mph /  15 km/h 83 % 12.7 in /  0.5 mm open2300-1.11 W/m2
13:12 53.2 °F /  11.8 °C 48.2 °F /  9.0 °C 29.8 in /  1010.7 hPa Calm   5.8 mph /  9.3 km/h 83 % 0 in /  0.0 mm open2300-1.11 W/m2
14:12 53.4 °F /  11.9 °C 48.7 °F /  9.3 °C 29.8 in /  1010.7 hPa Calm   6.4 mph /  10.3 km/h 84 % 0 in /  0.0 mm open2300-1.11 W/m2
15:12 53.2 °F /  11.8 °C 48.6 °F /  9.2 °C 29.8 in /  1010.4 hPa SE 8.7 mph /  14 km/h 8.7 mph /  14 km/h 84 % 12.7 in /  0.5 mm open2300-1.11 W/m2
16:12 52.9 °F /  11.6 °C 47.8 °F /  8.8 °C 29.8 in /  1010.4 hPa ESE 12.6 mph /  20.3 km/h 12.6 mph /  20.3 km/h 83 % 12.7 in /  0.5 mm open2300-1.11 W/m2
17:12 53.8 °F /  12.1 °C 47.5 °F /  8.6 °C 29.8 in /  1010.4 hPa NNE 1.8 mph /  2.9 km/h 7.6 mph /  12.2 km/h 79 % 0 in /  0.0 mm open2300-1.11 W/m2
18:12 52.5 °F /  11.4 °C 47.8 °F /  8.8 °C 29.9 in /  1011.1 hPa SE 3.5 mph /  5.6 km/h 4.7 mph /  7.6 km/h 84 % 50.8 in /  2.0 mm open2300-1.11 W/m2
19:12 52.3 °F /  11.3 °C 48.2 °F /  9.0 °C 29.9 in /  1011.4 hPa Calm   4.7 mph /  7.6 km/h 86 % 63.5 in /  2.5 mm open2300-1.11 W/m2
20:12 52.3 °F /  11.3 °C 48.2 °F /  9.0 °C 29.9 in /  1011.4 hPa ESE 5.8 mph /  9.3 km/h 14.8 mph /  23.8 km/h 86 % 12.7 in /  0.5 mm open2300-1.11 W/m2
21:12 53.4 °F /  11.9 °C 49.6 °F /  9.8 °C 29.9 in /  1011.7 hPa SE 21.6 mph /  34.8 km/h 21.6 mph /  34.8 km/h 87 % 0 in /  0.0 mm open2300-1.11 W/m2
22:12 54.5 °F /  12.5 °C 50.7 °F /  10.4 °C 29.9 in /  1012.8 hPa SE 10.5 mph /  16.9 km/h 14.8 mph /  23.8 km/h 87 % 0 in /  0.0 mm open2300-1.11 W/m2
23:12 54.3 °F /  12.4 °C 50.5 °F /  10.3 °C 29.9 in /  1013.8 hPa SE 6.4 mph /  10.3 km/h 6.4 mph /  10.3 km/h 87 % 0 in /  0.0 mm open2300-1.11 W/m2
Observations météo à CASSIS
WU-History script by Weather Underground - 1 mb